createdAt,value
2023-03-10T00:22:57.683Z,65.53
2023-03-10T04:01:53.062Z,70.62
2023-03-10T04:14:04.296Z,71.34
2023-03-10T04:20:21.903Z,72.08
2023-03-10T04:31:33.577Z,72.29
2023-03-10T04:36:38.464Z,72.38
2023-03-10T04:41:51.995Z,72.79
2023-03-10T04:46:54.133Z,72.91
2023-03-10T04:51:58.281Z,73.13
2023-03-10T04:57:00.232Z,73.88
2023-03-10T05:01:56.996Z,73.99
2023-03-10T05:06:53.590Z,73.75
2023-03-10T05:11:50.350Z,74.20
2023-03-10T05:16:49.608Z,74.34
2023-03-10T05:21:46.138Z,74.57
2023-03-10T05:26:45.148Z,74.89
2023-03-10T05:31:42.028Z,74.76
2023-03-10T05:36:43.289Z,74.75
2023-03-10T05:41:42.173Z,75.24
2023-03-10T05:46:41.082Z,75.04
2023-03-10T05:51:37.586Z,75.11
2023-03-10T05:56:36.672Z,75.49
2023-03-10T06:01:34.293Z,75.42
2023-03-10T06:06:30.829Z,75.67
2023-03-10T06:11:27.582Z,75.81
2023-03-10T06:16:24.109Z,75.73
2023-03-10T06:34:27.148Z,76.09
2023-03-10T06:39:35.097Z,76.31
2023-03-10T06:51:42.765Z,76.46
2023-03-10T06:56:39.471Z,76.47
2023-03-10T07:46:00.456Z,77.18
2023-03-10T07:51:28.932Z,77.57
2023-03-10T11:02:26.063Z,77.72
2023-03-10T12:20:12.326Z,78.92
2023-03-10T13:20:16.343Z,78.71
2023-03-10T14:49:40.185Z,78.60
2023-03-10T14:54:37.034Z,78.52
2023-03-10T14:59:33.731Z,78.18
2023-03-10T15:04:30.263Z,78.55
2023-03-10T15:09:27.081Z,78.39
2023-03-10T15:14:36.887Z,78.36
2023-03-10T15:19:33.399Z,78.29
2023-03-10T15:24:30.070Z,78.36
2023-03-10T15:29:26.554Z,78.08
2023-03-10T15:34:25.072Z,78.21
2023-03-10T15:39:30.981Z,78.32
2023-03-10T15:44:28.308Z,78.26
2023-03-10T15:49:24.818Z,77.82
2023-03-10T15:54:21.337Z,78.33
2023-03-10T15:59:17.822Z,78.19
2023-03-10T16:04:14.264Z,78.02
2023-03-10T16:09:10.750Z,77.62
2023-03-10T16:14:07.633Z,77.91
2023-03-10T16:19:04.313Z,77.58
2023-03-10T16:24:00.928Z,77.49
2023-03-10T16:28:57.526Z,77.61
2023-03-10T16:33:54.500Z,77.91
2023-03-10T16:38:54.682Z,77.54
2023-03-10T16:43:51.534Z,77.36
2023-03-10T16:49:26.281Z,77.51
2023-03-10T16:54:26.053Z,77.77
2023-03-10T16:59:27.684Z,77.47
2023-03-10T17:04:45.201Z,77.84
2023-03-10T17:09:41.874Z,78.02
2023-03-10T17:14:52.161Z,77.66
2023-03-10T17:19:50.757Z,77.95
2023-03-10T17:24:52.932Z,78.03
2023-03-10T17:29:49.410Z,77.83
2023-03-10T17:34:51.874Z,78.37
2023-03-10T17:39:48.412Z,78.02
2023-03-10T17:44:49.029Z,78.49
2023-03-10T17:49:45.527Z,78.20
2023-03-10T17:54:42.068Z,78.46
2023-03-10T17:59:39.003Z,78.43
2023-03-10T18:04:35.835Z,78.17
2023-03-10T18:09:32.435Z,78.07
2023-03-10T18:14:28.912Z,78.48
2023-03-10T18:19:25.386Z,78.81
2023-03-10T18:24:22.335Z,78.63
2023-03-10T18:29:18.807Z,78.92
2023-03-10T18:34:15.685Z,79.05
2023-03-10T18:39:12.146Z,78.71
2023-03-10T18:44:08.571Z,79.01
2023-03-10T18:49:05.054Z,79.24
2023-03-10T18:54:01.549Z,79.17
2023-03-10T18:58:58.027Z,79.18
2023-03-10T19:03:54.568Z,79.42
2023-03-10T19:08:53.337Z,79.39
2023-03-10T19:13:50.986Z,79.37
2023-03-10T19:18:47.455Z,79.56
2023-03-10T19:23:45.506Z,79.22
2023-03-10T19:28:41.968Z,79.45
2023-03-10T19:33:39.791Z,79.52
2023-03-10T19:38:37.466Z,79.60
2023-03-10T19:43:35.746Z,79.34
2023-03-10T19:48:32.483Z,79.71
2023-03-10T19:53:29.702Z,79.61
2023-03-10T19:58:26.349Z,79.39
2023-03-10T20:03:23.383Z,79.60
2023-03-10T20:08:19.841Z,79.55
2023-03-10T20:13:16.304Z,79.58
2023-03-10T20:18:12.776Z,79.77
2023-03-10T20:23:09.296Z,79.51
2023-03-10T20:28:05.734Z,79.87
2023-03-10T20:33:02.552Z,79.80
2023-03-10T20:38:00.187Z,79.74
2023-03-10T20:42:59.610Z,79.64
2023-03-10T20:47:56.337Z,79.39
2023-03-10T20:52:52.897Z,79.63
2023-03-10T20:57:50.696Z,79.86
2023-03-10T21:02:48.611Z,79.56
2023-03-10T21:07:45.308Z,79.81
2023-03-10T21:12:43.028Z,79.58
2023-03-10T21:17:39.490Z,79.86
2023-03-10T21:22:37.296Z,79.85
2023-03-10T21:27:35.388Z,79.76
2023-03-10T21:32:32.884Z,79.94
2023-03-10T21:37:29.395Z,79.68
2023-03-10T21:42:25.870Z,79.86
2023-03-10T21:47:22.350Z,79.86
2023-03-10T21:52:18.811Z,79.71
2023-03-10T21:57:15.263Z,79.99
2023-03-10T22:02:24.267Z,80.08
2023-03-10T22:07:20.780Z,79.85
2023-03-10T22:12:18.480Z,80.10
2023-03-10T22:17:14.990Z,80.09
2023-03-10T22:22:11.443Z,80.29
2023-03-10T22:27:07.886Z,80.09
2023-03-10T22:32:04.507Z,80.14
2023-03-10T22:37:00.993Z,80.26
2023-03-10T22:41:57.465Z,80.16
2023-03-10T22:47:00.145Z,80.18
2023-03-10T22:51:56.589Z,80.37
2023-03-10T22:56:53.017Z,80.36
2023-03-10T23:01:51.856Z,80.10
2023-03-10T23:06:48.347Z,80.21
2023-03-10T23:11:46.555Z,80.16
2023-03-10T23:16:43.133Z,80.48
2023-03-10T23:21:39.571Z,80.58
2023-03-10T23:26:37.380Z,80.42
2023-03-10T23:31:33.973Z,80.21
2023-03-10T23:36:32.205Z,80.37
2023-03-10T23:41:28.645Z,80.25
2023-03-10T23:46:25.074Z,80.63
2023-03-10T23:51:21.544Z,80.37
2023-03-10T23:56:17.972Z,80.39
